createdAt,value
2018-09-18T00:00:26.185Z,15.70
2018-09-18T00:03:00.468Z,15.60
2018-09-18T00:05:34.863Z,15.70
2018-09-18T00:08:09.268Z,15.70
2018-09-18T00:10:43.715Z,15.60
2018-09-18T00:13:18.077Z,15.50
2018-09-18T00:15:52.583Z,15.50
2018-09-18T00:18:27.024Z,15.60
2018-09-18T00:21:01.457Z,15.50
2018-09-18T00:23:35.766Z,15.40
2018-09-18T00:26:10.160Z,15.10
2018-09-18T00:28:44.523Z,15.20
2018-09-18T00:31:18.805Z,15.10
2018-09-18T00:33:53.231Z,15.10
2018-09-18T00:36:27.891Z,15.00
2018-09-18T00:39:02.327Z,15.00
2018-09-18T00:41:36.848Z,15.10
2018-09-18T00:44:11.205Z,15.00
2018-09-18T00:46:45.527Z,15.00
2018-09-18T00:49:19.808Z,15.00
2018-09-18T00:51:54.246Z,14.90
2018-09-18T00:54:28.575Z,14.90
2018-09-18T00:57:03.071Z,14.70
2018-09-18T00:59:37.475Z,14.50
2018-09-18T01:02:12.003Z,14.60
2018-09-18T01:04:46.323Z,14.60
2018-09-18T01:07:20.723Z,14.60
2018-09-18T01:09:55.289Z,14.60
2018-09-18T01:12:29.692Z,14.60
2018-09-18T01:15:04.001Z,14.60
2018-09-18T01:17:38.519Z,14.60
2018-09-18T01:20:13.107Z,14.50
2018-09-18T01:22:47.515Z,14.50
2018-09-18T01:25:21.822Z,14.40
2018-09-18T01:27:56.195Z,14.50
2018-09-18T01:30:30.548Z,14.50
2018-09-18T01:33:04.943Z,14.60
2018-09-18T01:35:39.356Z,14.40
2018-09-18T01:38:13.790Z,14.40
2018-09-18T01:40:48.084Z,14.40
2018-09-18T01:43:22.473Z,14.40
2018-09-18T01:45:57.024Z,14.50
2018-09-18T01:48:31.304Z,14.40
2018-09-18T01:51:05.917Z,14.40
2018-09-18T01:53:40.347Z,14.40
2018-09-18T01:56:14.740Z,14.40
2018-09-18T01:58:49.012Z,14.30
2018-09-18T02:01:23.370Z,14.20
2018-09-18T02:03:57.643Z,14.20
2018-09-18T02:06:32.145Z,14.20
2018-09-18T02:09:07.205Z,14.10
2018-09-18T02:11:41.744Z,14.10
2018-09-18T02:14:16.248Z,14.10
2018-09-18T02:16:50.788Z,14.00
2018-09-18T02:19:25.075Z,14.00
2018-09-18T02:21:59.535Z,14.40
2018-09-18T02:24:33.909Z,13.90
2018-09-18T02:27:08.266Z,14.00
2018-09-18T02:29:42.583Z,14.00
2018-09-18T02:32:17.013Z,14.00
2018-09-18T02:34:51.423Z,14.00
2018-09-18T02:37:26.148Z,13.90
2018-09-18T02:40:00.607Z,13.90
2018-09-18T02:42:35.255Z,13.90
2018-09-18T02:45:09.572Z,13.90
2018-09-18T02:47:43.879Z,13.80
2018-09-18T02:50:18.200Z,13.90
2018-09-18T02:52:52.565Z,13.90
2018-09-18T02:55:26.982Z,13.80
2018-09-18T02:58:01.495Z,13.80
2018-09-18T03:00:35.840Z,13.90
2018-09-18T03:03:10.156Z,13.90
2018-09-18T03:05:44.473Z,14.00
2018-09-18T03:08:18.776Z,14.00
2018-09-18T03:10:53.124Z,13.90
2018-09-18T03:13:27.387Z,13.90
2018-09-18T03:16:01.838Z,13.70
2018-09-18T03:18:36.219Z,13.50
2018-09-18T03:21:10.480Z,13.50
2018-09-18T03:23:45.097Z,13.60
2018-09-18T03:26:19.666Z,13.60
2018-09-18T03:28:54.152Z,13.60
2018-09-18T03:31:28.567Z,13.60
2018-09-18T03:34:02.883Z,13.60
2018-09-18T03:36:37.303Z,13.60
2018-09-18T03:39:11.866Z,13.50
2018-09-18T03:41:46.237Z,13.40
2018-09-18T03:44:20.579Z,13.40
2018-09-18T03:46:55.067Z,13.40
2018-09-18T03:49:29.567Z,13.40
2018-09-18T03:52:03.939Z,13.50
2018-09-18T03:54:38.240Z,13.40
2018-09-18T03:57:12.654Z,13.50
2018-09-18T03:59:47.105Z,13.50
2018-09-18T04:02:21.389Z,13.50
2018-09-18T04:04:55.695Z,13.50
2018-09-18T04:07:30.036Z,13.30
2018-09-18T04:10:04.553Z,13.30
2018-09-18T04:12:39.069Z,13.40
2018-09-18T04:15:13.500Z,13.40
2018-09-18T04:17:47.901Z,13.80
2018-09-18T04:20:22.279Z,13.40
2018-09-18T04:22:56.638Z,13.40
2018-09-18T04:25:30.995Z,13.30
2018-09-18T04:28:05.387Z,13.30
2018-09-18T04:30:39.914Z,13.30
2018-09-18T04:33:14.270Z,13.10
2018-09-18T04:35:48.756Z,13.10
2018-09-18T04:38:23.368Z,13.10
2018-09-18T04:40:57.892Z,13.10
2018-09-18T04:43:32.274Z,12.90
2018-09-18T04:46:06.749Z,12.90
2018-09-18T04:48:41.247Z,12.70
2018-09-18T04:51:15.795Z,12.70
2018-09-18T04:53:50.204Z,12.80
2018-09-18T04:56:24.525Z,12.80
2018-09-18T04:58:58.989Z,13.00
2018-09-18T05:01:33.820Z,13.00
2018-09-18T05:04:08.460Z,13.00
2018-09-18T05:06:42.799Z,12.90
2018-09-18T05:09:17.328Z,13.00
2018-09-18T05:11:51.757Z,13.00
2018-09-18T05:14:26.229Z,13.00
2018-09-18T05:17:00.580Z,13.10
2018-09-18T05:19:35.114Z,13.10
2018-09-18T05:22:09.608Z,13.10
2018-09-18T05:24:44.111Z,13.10
2018-09-18T05:27:18.555Z,13.20
2018-09-18T05:29:53.087Z,13.10
2018-09-18T05:32:27.471Z,13.10
2018-09-18T05:35:02.172Z,13.20
2018-09-18T05:37:36.691Z,13.20
2018-09-18T05:40:10.995Z,13.30
2018-09-18T05:42:45.447Z,13.30
2018-09-18T05:45:19.766Z,13.30
2018-09-18T05:47:54.148Z,13.30
2018-09-18T05:50:28.439Z,13.30
2018-09-18T05:53:02.890Z,13.40
2018-09-18T05:55:37.308Z,13.50
2018-09-18T05:58:11.743Z,13.50
2018-09-18T06:00:46.241Z,13.50
2018-09-18T06:03:20.753Z,13.60
2018-09-18T06:05:55.188Z,13.70
2018-09-18T06:08:29.617Z,13.70
2018-09-18T06:11:03.917Z,13.80
2018-09-18T06:13:38.236Z,13.80
2018-09-18T06:16:12.502Z,13.90
2018-09-18T06:18:47.056Z,14.00
2018-09-18T06:21:21.680Z,14.10
2018-09-18T06:23:56.042Z,14.10
2018-09-18T06:26:30.533Z,14.10
2018-09-18T06:29:04.821Z,14.20
2018-09-18T06:31:39.192Z,14.30
2018-09-18T06:34:13.636Z,14.10
2018-09-18T06:36:48.037Z,14.10
2018-09-18T06:39:22.540Z,14.30
2018-09-18T06:41:56.919Z,14.50
2018-09-18T06:44:31.175Z,14.70
2018-09-18T06:47:05.592Z,14.90
2018-09-18T06:49:40.039Z,15.10
2018-09-18T06:52:14.446Z,15.20
2018-09-18T06:54:48.989Z,15.40
2018-09-18T06:57:23.512Z,15.60
2018-09-18T06:59:57.923Z,15.70
2018-09-18T07:02:32.320Z,15.90
2018-09-18T07:06:10.198Z,16.00
2018-09-18T07:08:44.544Z,16.10
2018-09-18T07:11:18.947Z,16.30
2018-09-18T07:13:53.412Z,16.50
2018-09-18T07:16:27.868Z,16.60
2018-09-18T07:19:02.349Z,16.70
2018-09-18T07:21:36.747Z,16.90
2018-09-18T07:24:11.221Z,17.10
2018-09-18T07:26:45.583Z,17.20
2018-09-18T07:29:20.169Z,17.40
2018-09-18T07:31:54.447Z,17.40
2018-09-18T07:34:28.759Z,17.10
2018-09-18T07:37:03.054Z,17.80
2018-09-18T07:39:37.599Z,17.90
2018-09-18T07:42:12.013Z,18.00
2018-09-18T07:44:46.331Z,18.10
2018-09-18T07:47:20.744Z,18.20
2018-09-18T07:49:55.036Z,18.30
2018-09-18T07:52:29.343Z,18.40
2018-09-18T07:55:03.669Z,18.60
2018-09-18T07:57:38.164Z,18.70
2018-09-18T08:00:12.571Z,18.90
2018-09-18T08:02:46.988Z,19.00
2018-09-18T08:05:21.247Z,19.20
2018-09-18T08:07:55.588Z,19.20
2018-09-18T08:10:29.920Z,19.00
2018-09-18T08:13:04.271Z,19.60
2018-09-18T08:15:38.715Z,19.80
2018-09-18T08:18:13.171Z,19.90
2018-09-18T08:20:47.521Z,20.10
2018-09-18T08:23:22.021Z,20.10
2018-09-18T08:25:56.359Z,20.30
2018-09-18T08:28:30.653Z,20.40
2018-09-18T08:31:05.071Z,20.60
2018-09-18T08:33:39.739Z,20.80
2018-09-18T08:36:14.312Z,20.90
2018-09-18T08:38:48.857Z,21.10
2018-09-18T08:41:23.832Z,21.30
2018-09-18T08:43:58.264Z,21.40
2018-09-18T08:46:32.948Z,21.40
2018-09-18T08:49:07.848Z,21.60
2018-09-18T08:51:44.563Z,21.70
2018-09-18T08:57:12.328Z,22.00
2018-09-18T08:59:47.066Z,22.10
2018-09-18T09:02:23.884Z,22.20
2018-09-18T09:04:59.871Z,22.40
2018-09-18T09:08:14.594Z,22.50
2018-09-18T09:10:55.494Z,22.60
2018-09-18T09:18:12.590Z,22.90
2018-09-18T09:20:50.096Z,23.10
2018-09-18T09:23:45.287Z,23.20
2018-09-18T09:26:41.195Z,23.40
2018-09-18T09:29:36.017Z,23.40
2018-09-18T09:35:32.027Z,23.70
2018-09-18T09:38:07.521Z,23.80
2018-09-18T09:40:55.680Z,23.60
2018-09-18T09:43:44.003Z,23.60
2018-09-18T09:46:39.310Z,23.70
2018-09-18T09:52:23.890Z,24.00
2018-09-18T09:54:58.789Z,24.00
2018-09-18T09:58:20.928Z,24.10
2018-09-18T10:01:00.933Z,24.20
2018-09-18T10:03:35.941Z,24.00
2018-09-18T10:26:27.707Z,24.70
2018-09-18T10:39:30.788Z,25.10
2018-09-18T10:42:10.163Z,25.10
2018-09-18T10:44:45.415Z,25.10
2018-09-18T10:47:32.544Z,25.20
2018-09-18T10:50:31.900Z,25.30
2018-09-18T11:02:39.027Z,25.40
2018-09-18T11:11:25.643Z,25.30
2018-09-18T11:19:59.831Z,25.10
2018-09-18T11:22:36.007Z,25.30
2018-09-18T11:25:22.288Z,25.20
2018-09-18T11:40:11.727Z,25.20
2018-09-18T11:49:03.005Z,25.40
2018-09-18T11:54:40.661Z,25.50
2018-09-18T11:57:20.880Z,25.60
2018-09-18T11:59:55.570Z,25.80
2018-09-18T12:02:30.150Z,26.00
2018-09-18T12:10:24.307Z,25.90
2018-09-18T12:13:00.363Z,25.50
2018-09-18T12:15:41.288Z,25.40
2018-09-18T12:27:36.822Z,25.20
2018-09-18T12:30:11.698Z,25.20
2018-09-18T12:35:58.987Z,25.70
2018-09-18T12:38:33.964Z,25.80
2018-09-18T12:41:08.822Z,25.70
2018-09-18T12:43:44.414Z,25.70
2018-09-18T12:46:39.678Z,25.60
2018-09-18T12:49:18.230Z,25.60
2018-09-18T12:51:54.524Z,25.70
2018-09-18T12:54:36.535Z,25.50
2018-09-18T12:57:13.734Z,25.30
2018-09-18T13:05:52.940Z,25.50
2018-09-18T13:24:51.025Z,25.70
2018-09-18T13:27:27.800Z,25.60
2018-09-18T13:33:09.305Z,25.50
2018-09-18T13:46:40.957Z,25.50
2018-09-18T13:54:08.448Z,25.60
2018-09-18T13:56:43.632Z,25.70
2018-09-18T13:59:18.410Z,25.70
2018-09-18T14:01:59.078Z,25.70
2018-09-18T14:04:35.093Z,25.70
2018-09-18T14:07:16.752Z,25.60
2018-09-18T14:10:02.509Z,25.60
2018-09-18T14:12:38.654Z,25.70
2018-09-18T14:32:46.625Z,25.70
2018-09-18T14:41:08.733Z,25.20
2018-09-18T14:43:43.361Z,25.20
2018-09-18T14:46:18.317Z,25.10
2018-09-18T14:52:18.206Z,25.10
2018-09-18T14:54:53.211Z,25.10
2018-09-18T14:57:28.663Z,25.00
2018-09-18T15:04:32.595Z,24.90
2018-09-18T15:07:14.320Z,24.60
2018-09-18T15:09:50.248Z,24.40
2018-09-18T15:12:24.763Z,24.20
2018-09-18T15:15:09.727Z,24.10
2018-09-18T15:17:55.185Z,23.90
2018-09-18T15:20:30.208Z,23.70
2018-09-18T15:23:04.607Z,23.10
2018-09-18T15:25:39.082Z,21.60
2018-09-18T15:28:13.424Z,21.30
2018-09-18T15:30:47.926Z,21.00
2018-09-18T15:33:22.449Z,20.50
2018-09-18T15:35:57.039Z,19.80
2018-09-18T15:38:31.559Z,19.20
2018-09-18T15:41:06.447Z,19.00
2018-09-18T15:43:40.915Z,18.80
2018-09-18T15:46:15.329Z,18.80
2018-09-18T15:48:49.767Z,18.70
2018-09-18T15:51:24.100Z,18.70
2018-09-18T15:53:58.367Z,18.70
2018-09-18T15:56:32.769Z,18.70
2018-09-18T15:59:07.372Z,18.80
2018-09-18T16:01:41.845Z,18.50
2018-09-18T16:04:16.358Z,18.30
2018-09-18T16:06:50.890Z,18.10
2018-09-18T16:09:25.395Z,17.90
2018-09-18T16:11:59.929Z,17.70
2018-09-18T16:14:34.278Z,17.60
2018-09-18T16:17:08.631Z,17.50
2018-09-18T16:19:42.999Z,17.40
2018-09-18T16:22:17.353Z,17.50
2018-09-18T16:24:51.878Z,17.50
2018-09-18T16:27:26.432Z,17.30
2018-09-18T16:30:00.779Z,17.30
2018-09-18T16:32:35.185Z,17.40
2018-09-18T16:35:09.669Z,17.30
2018-09-18T16:37:44.025Z,17.30
2018-09-18T16:40:18.414Z,17.20
2018-09-18T16:42:52.836Z,17.00
2018-09-18T16:45:27.102Z,16.90
2018-09-18T16:48:01.364Z,17.00
2018-09-18T16:50:35.796Z,16.90
2018-09-18T16:53:10.117Z,16.90
2018-09-18T16:55:44.481Z,16.80
2018-09-18T16:58:18.902Z,16.90
2018-09-18T17:00:53.459Z,16.90
2018-09-18T17:03:27.822Z,17.00
2018-09-18T17:06:02.243Z,16.80
2018-09-18T17:08:36.565Z,16.70
2018-09-18T17:11:11.041Z,16.70
2018-09-18T17:13:45.383Z,16.60
2018-09-18T17:16:20.006Z,16.50
2018-09-18T17:18:54.435Z,16.50
2018-09-18T17:21:28.840Z,16.50
2018-09-18T17:24:03.642Z,16.60
2018-09-18T17:26:38.010Z,16.60
2018-09-18T17:29:12.418Z,16.80
2018-09-18T17:31:46.732Z,16.50
2018-09-18T17:34:21.243Z,16.20
2018-09-18T17:36:55.502Z,16.00
2018-09-18T17:39:29.864Z,15.90
2018-09-18T17:42:04.211Z,15.90
2018-09-18T17:44:38.676Z,16.00
2018-09-18T17:47:13.085Z,15.80
2018-09-18T17:49:47.605Z,15.60
2018-09-18T17:52:21.931Z,15.70
2018-09-18T17:54:56.351Z,15.70
2018-09-18T17:57:30.795Z,15.80
2018-09-18T18:00:05.537Z,15.90
2018-09-18T18:02:40.038Z,15.90
2018-09-18T18:05:14.512Z,16.00
2018-09-18T18:07:48.944Z,16.10
2018-09-18T18:10:23.311Z,16.10
2018-09-18T18:12:57.756Z,15.90
2018-09-18T18:15:32.101Z,15.90
2018-09-18T18:18:06.613Z,16.10
2018-09-18T18:20:40.993Z,16.30
2018-09-18T18:23:15.225Z,16.20
2018-09-18T18:25:49.739Z,30.90
2018-09-18T18:28:24.151Z,29.90
2018-09-18T18:30:58.451Z,22.70
2018-09-18T18:33:32.918Z,19.70
2018-09-18T18:36:07.306Z,18.10
2018-09-18T18:38:42.577Z,17.20
2018-09-18T18:41:16.907Z,16.70
2018-09-18T18:43:51.635Z,16.50
2018-09-18T18:46:25.999Z,16.40
2018-09-18T18:49:00.355Z,16.30
2018-09-18T18:51:34.724Z,16.30
2018-09-18T18:54:09.120Z,16.30
2018-09-18T18:56:44.648Z,16.30
2018-09-18T18:59:19.222Z,16.20
2018-09-18T19:01:53.726Z,16.30
2018-09-18T19:04:28.072Z,16.40
2018-09-18T19:07:02.398Z,16.40
2018-09-18T19:09:36.860Z,16.30
2018-09-18T19:12:11.425Z,16.20
2018-09-18T19:14:45.856Z,16.20
2018-09-18T19:17:20.115Z,16.10
2018-09-18T19:19:54.423Z,16.00
2018-09-18T19:22:28.863Z,16.20
2018-09-18T19:25:03.411Z,16.20
2018-09-18T19:27:37.724Z,16.10
2018-09-18T19:30:12.220Z,16.20
2018-09-18T19:32:46.713Z,16.30
2018-09-18T19:35:21.071Z,16.30
2018-09-18T19:37:55.528Z,16.20
2018-09-18T19:40:29.959Z,16.20
2018-09-18T19:43:04.605Z,16.40
2018-09-18T19:45:39.007Z,16.60
2018-09-18T19:48:13.575Z,16.60
2018-09-18T19:50:47.998Z,16.60
2018-09-18T19:53:22.359Z,16.60
2018-09-18T19:55:56.640Z,16.60
2018-09-18T19:58:31.003Z,16.50
2018-09-18T20:01:05.347Z,16.50
2018-09-18T20:03:39.734Z,16.60
2018-09-18T20:06:14.049Z,16.70
2018-09-18T20:08:48.583Z,16.70
2018-09-18T20:11:23.031Z,16.80
2018-09-18T20:13:57.560Z,16.80
2018-09-18T20:16:31.918Z,16.80
2018-09-18T20:19:06.449Z,16.80
2018-09-18T20:21:41.039Z,16.80
2018-09-18T20:24:16.467Z,16.70
2018-09-18T20:26:50.912Z,16.70
2018-09-18T20:29:25.348Z,16.70
2018-09-18T20:31:59.738Z,16.80
2018-09-18T20:34:34.194Z,16.70
2018-09-18T20:37:08.761Z,16.70
2018-09-18T20:39:43.284Z,16.70
2018-09-18T20:42:17.633Z,16.80
2018-09-18T20:44:53.094Z,16.70
2018-09-18T20:47:27.383Z,16.60
2018-09-18T20:50:01.863Z,16.40
2018-09-18T20:52:36.385Z,16.20
2018-09-18T20:55:10.867Z,16.30
2018-09-18T20:57:45.367Z,16.30
2018-09-18T21:00:19.873Z,16.40
2018-09-18T21:02:54.357Z,16.50
2018-09-18T21:05:28.645Z,16.50
2018-09-18T21:08:03.083Z,16.50
2018-09-18T21:10:37.472Z,16.30
2018-09-18T21:13:12.097Z,16.20
2018-09-18T21:15:46.501Z,16.20
2018-09-18T21:18:20.885Z,16.10
2018-09-18T21:20:55.383Z,16.00
2018-09-18T21:23:29.627Z,15.90
2018-09-18T21:26:08.177Z,15.90
2018-09-18T21:28:42.715Z,16.00
2018-09-18T21:31:17.178Z,16.00
2018-09-18T21:33:51.548Z,15.90
2018-09-18T21:36:25.963Z,15.90
2018-09-18T21:39:01.301Z,15.90
2018-09-18T21:41:35.664Z,15.80
2018-09-18T21:44:09.986Z,15.80
2018-09-18T21:46:44.368Z,15.80
2018-09-18T21:49:18.691Z,15.60
2018-09-18T21:51:53.183Z,15.50
2018-09-18T21:54:27.525Z,15.60
2018-09-18T21:57:01.859Z,15.70
2018-09-18T21:59:36.424Z,15.80
2018-09-18T22:02:10.887Z,15.90
2018-09-18T22:04:45.326Z,15.70
2018-09-18T22:07:19.729Z,15.70
2018-09-18T22:09:54.151Z,15.70
2018-09-18T22:12:28.681Z,15.70
2018-09-18T22:15:03.027Z,15.90
2018-09-18T22:17:37.347Z,15.90
2018-09-18T22:20:11.721Z,15.90
2018-09-18T22:22:46.050Z,15.90
2018-09-18T22:25:21.430Z,15.70
2018-09-18T22:27:55.828Z,15.60
2018-09-18T22:30:30.355Z,15.70
2018-09-18T22:33:04.635Z,15.60
2018-09-18T22:35:38.960Z,15.60
2018-09-18T22:38:13.663Z,15.50
2018-09-18T22:40:48.079Z,15.40
2018-09-18T22:43:22.540Z,15.50
2018-09-18T22:45:56.931Z,15.60
2018-09-18T22:48:31.360Z,15.60
2018-09-18T22:51:05.823Z,15.60
2018-09-18T22:53:40.182Z,15.60
2018-09-18T22:56:14.454Z,15.60
2018-09-18T22:58:48.954Z,15.60
2018-09-18T23:01:23.303Z,15.70
2018-09-18T23:03:57.862Z,15.70
2018-09-18T23:06:32.328Z,15.60
2018-09-18T23:09:07.572Z,15.60
2018-09-18T23:11:42.043Z,15.60
2018-09-18T23:14:16.332Z,15.50
2018-09-18T23:16:50.671Z,15.50
2018-09-18T23:19:25.008Z,15.40
2018-09-18T23:21:59.409Z,15.40
2018-09-18T23:24:33.699Z,15.30
2018-09-18T23:27:08.063Z,15.30
2018-09-18T23:29:43.449Z,15.30
2018-09-18T23:32:17.924Z,15.20
2018-09-18T23:34:52.502Z,15.20
2018-09-18T23:37:26.736Z,15.20
2018-09-18T23:40:01.304Z,15.20
2018-09-18T23:42:35.631Z,15.10
2018-09-18T23:45:11.192Z,15.00
2018-09-18T23:47:45.544Z,14.90
2018-09-18T23:50:19.915Z,14.90
2018-09-18T23:52:54.311Z,14.90
2018-09-18T23:55:28.635Z,15.00
2018-09-18T23:58:03.035Z,14.90
